< < Back
Terminal Aerodrome Forecast


Current Version              Previous Versions:   1  2  3  4  5  6  7  8  9  

Terminal Aerodrome Forecast

506
FTUS42 KTAE 031120
TAFABY
TAF
KABY 031120Z 0312/0412 22006KT P6SM SCT005 SCT200
     FM031300 24010KT P6SM SCT040 BKN200
     FM032100 25010G15KT P6SM VCTS BKN050CB
     FM040100 21006KT P6SM BKN250
     FM040900 VRB03KT 2SM BR BKN020=

Latest METAR

788
SAUS70 KWBC 032000 RRB
MTRABY
METAR KABY 031953Z 23010KT 10SM SCT045 33/22 A3004 RMK AO2 SLP171
T03280217


USA.gov is the U.S. government's official web portal to all federal, state and local government web resources and services.